createdAt,value
2023-04-18T00:10:58.459Z,11.35
2023-04-18T00:31:01.078Z,11.26
2023-04-18T00:51:03.787Z,11.48
2023-04-18T01:11:06.417Z,11.40
2023-04-18T01:31:09.140Z,11.31
2023-04-18T01:51:11.818Z,11.66
2023-04-18T02:11:14.442Z,11.12
2023-04-18T02:31:17.210Z,11.28
2023-04-18T02:51:21.308Z,11.48
2023-04-18T03:11:23.977Z,11.39
2023-04-18T03:31:26.803Z,11.33
2023-04-18T03:51:29.460Z,11.50
2023-04-18T04:11:32.109Z,11.56
2023-04-18T04:31:34.814Z,11.67
2023-04-18T04:51:37.584Z,11.93
2023-04-18T05:11:40.194Z,12.03
2023-04-18T05:31:42.824Z,12.18
2023-04-18T05:51:45.449Z,13.19
2023-04-18T06:11:48.147Z,13.15
2023-04-18T06:31:51.947Z,13.08
2023-04-18T06:51:54.602Z,12.89
2023-04-18T07:11:57.303Z,13.50
2023-04-18T07:32:00.469Z,13.37
2023-04-18T07:52:03.438Z,14.32
2023-04-18T08:12:06.072Z,14.84
2023-04-18T08:32:08.815Z,14.67
2023-04-18T08:52:11.459Z,15.59
2023-04-18T09:12:15.770Z,15.44
2023-04-18T09:32:18.957Z,16.01
2023-04-18T09:52:22.139Z,16.08
2023-04-18T10:12:25.668Z,17.19
2023-04-18T10:32:28.811Z,15.36
2023-04-18T10:52:31.722Z,16.51
2023-04-18T11:12:34.672Z,16.83
2023-04-18T11:32:38.993Z,17.20
2023-04-18T11:52:41.716Z,17.05
2023-04-18T12:12:44.384Z,16.97
2023-04-18T12:32:47.276Z,18.98
2023-04-18T12:52:50.043Z,18.85
2023-04-18T13:12:52.817Z,18.77
2023-04-18T13:32:56.405Z,20.08
2023-04-18T13:52:59.083Z,19.38
2023-04-18T14:13:02.098Z,19.92
2023-04-18T14:33:05.265Z,19.65
2023-04-18T14:53:08.099Z,19.17
2023-04-18T15:13:10.859Z,18.05
2023-04-18T15:33:14.270Z,18.30
2023-04-18T15:53:17.463Z,17.88
2023-04-18T16:13:20.296Z,17.73
2023-04-18T16:33:26.245Z,17.27
2023-04-18T16:53:29.344Z,16.29
2023-04-18T17:13:32.855Z,15.72
2023-04-18T17:33:35.681Z,15.36
2023-04-18T17:53:40.127Z,15.03
2023-04-18T18:13:43.768Z,14.95
2023-04-18T18:33:47.389Z,14.53
2023-04-18T18:53:50.001Z,14.16
2023-04-18T19:13:53.524Z,14.06
2023-04-18T19:33:56.309Z,13.54
2023-04-18T19:53:59.137Z,12.99
2023-04-18T20:14:02.352Z,12.14
2023-04-18T20:34:05.183Z,12.20
2023-04-18T20:54:08.463Z,12.02
2023-04-18T21:14:11.407Z,12.38
2023-04-18T21:34:14.555Z,12.63
2023-04-18T21:54:17.513Z,12.73
2023-04-18T22:14:21.366Z,12.51
2023-04-18T22:34:27.203Z,12.46
2023-04-18T22:54:32.216Z,12.70
2023-04-18T23:14:36.524Z,12.67
2023-04-18T23:34:39.176Z,12.60
